UMMS Airport Information

Runway Information
Runway 13 Length 11946 ft width 197 ft
Elevation 640 ft Threshold 0 ft Heading 139
Runway 31 Length 11946 ft Width 197 ft
Elevation 670 ft Threshold 0 ft Heading 319
Airport Frequencies
Type APP Name MINSK APP Frequency 125.9 MHZ
Type ATIS Name ATIS Frequency 128.85 MHZ
Type GND Name GND Frequency 121.7 MHZ
Type PMSV Name MINSK VOLM Frequency 126.675 MHZ
Type RDR Name MINSK RADA Frequency 125.25 MHZ
Type TWR Name TWR Frequency 118.3 MHZ
Airport Navaids
Type NDB Name Minsk-2 Frequency 635 KHZ
Type VOR-DME Name Minsk-2 Frequency 113600 KHZ
Type NDB Name Minsk-2 Frequency 635 KHZ
Airport Weather Information & NOTAM
ADDS - METARS form results

(0549 UTC 29 November 2021)
Data provider http://aviationweather.gov/metar/data/
 
METAR text: UMMS 290547Z 06003MPS 0300 0250S R13L/0550N R13R/0350N FG VV001 02/02 Q0992 NOSIG RMK QBB050
Conditions at: UMMS (MINSK , BY) observed 0547 UTC 29 November 2021
Temperature: 2.0°C (36°F)
Dewpoint: 2.0°C (36°F) [RH = 100%]
Pressure (altimeter): 29.29 inches Hg (992.0 mb)
Winds: from the ENE (60 degrees) at 7 MPH (6 knots; 3.1 m/s)
Visibility: 0.19 miles (0.31 km)
Ceiling: indefinite ceiling with vertical visibility of 100 feet AGL
Clouds: obscured sky
Weather: FG  (fog)

METAR text: UMMS 290536Z 07002MPS 040V110 0250 R13L/0550N R13R/0350N FG VV001 03/03 Q0992 NOSIG RMK QBB050
Conditions at: UMMS (MINSK , BY) observed 0536 UTC 29 November 2021
Temperature: 3.0°C (37°F)
Dewpoint: 3.0°C (37°F) [RH = 100%]
Pressure (altimeter): 29.29 inches Hg (992.0 mb)
Winds: from the ENE (70 degrees) at 5 MPH (4 knots; 2.1 m/s)
Visibility: 0.16 miles (0.26 km)
Ceiling: indefinite ceiling with vertical visibility of 100 feet AGL
Clouds: obscured sky
Weather: FG  (fog)

METAR text: UMMS 290530Z 08002MPS 050V110 0250 R13L/0550N R13R/0350N FG VV002 03/03 Q0992 NOSIG RMK QBB070
Conditions at: UMMS (MINSK , BY) observed 0530 UTC 29 November 2021
Temperature: 3.0°C (37°F)
Dewpoint: 3.0°C (37°F) [RH = 100%]
Pressure (altimeter): 29.29 inches Hg (992.0 mb)
Winds: from the E (80 degrees) at 5 MPH (4 knots; 2.1 m/s)
Visibility: 0.16 miles (0.26 km)
Ceiling: indefinite ceiling with vertical visibility of 200 feet AGL
Clouds: obscured sky
Weather: FG  (fog)

METAR text: UMMS 290500Z 07002MPS 020V100 0300 0200S R13L/0700N R13R/0400N FG VV002 03/03 Q0993 NOSIG RMK QBB060
Conditions at: UMMS (MINSK , BY) observed 0500 UTC 29 November 2021
Temperature: 3.0°C (37°F)
Dewpoint: 3.0°C (37°F) [RH = 100%]
Pressure (altimeter): 29.32 inches Hg (993.0 mb)
Winds: from the ENE (70 degrees) at 5 MPH (4 knots; 2.1 m/s)
Visibility: 0.19 miles (0.31 km)
Ceiling: indefinite ceiling with vertical visibility of 200 feet AGL
Clouds: obscured sky
Weather: FG  (fog)

Forecast for: UMMS (MINSK , BY)
Text: TAF UMMS 290503Z 2906/3006 08006MPS 0400 FG VV001
Forecast period: 0600 to 0900 UTC 29 November 2021
Forecast type: FROM: standard forecast or significant change
Winds: from the E (80 degrees) at 14 MPH (12 knots; 6.2 m/s)
Visibility: 0.25 miles (0.40 km)
Ceiling: indefinite ceiling with vertical visibility of 100 feet AGL
Clouds: obscured sky
Weather: FG  (fog)
Text: TEMPO 2906/2909 0200 -DZ FG OVC002
Forecast period: 0600 to 0900 UTC 29 November 2021
Forecast type: TEMPORARY: The following changes expected for less than half the time period
Visibility: 0.12 miles (0.19 km)
Ceiling: 200 feet AGL
Clouds: overcast cloud deck at 200 feet AGL
Weather: -DZ FG  (light drizzle, fog)
Text: FM290900 12006G11MPS 1200 -RA BR BKN003
Forecast period: 0900 to 1700 UTC 29 November 2021
Forecast type: FROM: standard forecast or significant change
Winds: from the ESE (120 degrees) at 14 MPH (12 knots; 6.2 m/s)
gusting to 24 MPH (21 knots; 10.8 m/s)
Visibility: 0.75 miles (1.21 km)
Ceiling: 300 feet AGL
Clouds: broken clouds at 300 feet AGL
Weather: -RA BR  (light rain, mist)
Text: TEMPO 2909/2917 0400 SHRA FG OVC002 BKN015CB
Forecast period: 0900 to 1700 UTC 29 November 2021
Forecast type: TEMPORARY: The following changes expected for less than half the time period
Visibility: 0.25 miles (0.40 km)
Ceiling: 200 feet AGL
Clouds: overcast cloud deck at 200 feet AGL
broken clouds at 1500 feet AGL
Weather: SHRA FG  (rain showers, fog)
Text: FM291700 27007G12MPS 2100 -SNRA BKN004
Forecast period: 1700 UTC 29 November 2021 to 0600 UTC 30 November 2021
Forecast type: FROM: standard forecast or significant change
Winds: from the W (270 degrees) at 16 MPH (14 knots; 7.2 m/s)
gusting to 26 MPH (23 knots; 11.8 m/s)
Visibility: 1.30 miles (2.09 km)
Ceiling: 400 feet AGL
Clouds: broken clouds at 400 feet AGL
Weather: -SN -RA  (light snow, light rain)
Text: TEMPO 2917/3006 29009G14MPS 1200 SHSNRA BKN003 BKN012CB
Forecast period: 1700 UTC 29 November 2021 to 0600 UTC 30 November 2021
Forecast type: TEMPORARY: The following changes expected for less than half the time period
Winds: from the WNW (290 degrees) at 20 MPH (17 knots; 8.7 m/s)
gusting to 31 MPH (27 knots; 13.9 m/s)
Visibility: 0.75 miles (1.21 km)
Ceiling: 300 feet AGL
Clouds: broken clouds at 300 feet AGL
broken clouds at 1200 feet AGL
Weather: SHSN SHRA  (snow showers, rain showers)